Time;durP1;ratioP1;P1;durP2;ratioP2;P2;SDS_P1;SDS_P2;PMS_P1;PMS_P2;Temp;Humidity;BMP_temperature;BMP_pressure;BME280_temperature;BME280_humidity;BME280_pressure;Samples;Min_cycle;Max_cycle;Signal;HPM_P1;HPM_P2
2023/08/18 00:00:00;;;;;;;2.40;0.88;;;17.20;99.90;;;;;;4962975;28;20396;-82
2023/08/18 00:02:26;;;;;;;2.10;1.42;;;17.20;99.90;;;;;;4963538;28;20034;-82
2023/08/18 00:04:52;;;;;;;1.65;0.88;;;17.20;99.90;;;;;;4962747;28;20046;-82
2023/08/18 00:07:18;;;;;;;1.17;0.60;;;17.20;99.90;;;;;;4961335;28;20107;-82
2023/08/18 00:09:43;;;;;;;1.50;0.60;;;17.10;99.90;;;;;;4956559;28;20380;-82
2023/08/18 00:12:10;;;;;;;1.30;0.85;;;17.20;99.90;;;;;;4962556;28;20023;-82
2023/08/18 00:14:36;;;;;;;1.23;0.63;;;17.10;99.90;;;;;;4963781;28;20031;-82
2023/08/18 00:17:01;;;;;;;1.65;0.93;;;17.10;99.90;;;;;;4962565;28;20039;-82
2023/08/18 00:19:27;;;;;;;1.60;0.70;;;17.10;99.90;;;;;;4957477;28;20015;-82
2023/08/18 00:21:53;;;;;;;2.47;0.65;;;17.10;99.90;;;;;;4956545;28;20480;-82
2023/08/18 00:24:18;;;;;;;1.20;0.50;;;17.10;99.90;;;;;;4957818;28;20042;-82
2023/08/18 00:26:45;;;;;;;1.30;0.70;;;17.10;99.90;;;;;;4963528;28;20419;-82
2023/08/18 00:29:12;;;;;;;2.00;0.60;;;17.10;99.90;;;;;;4964720;28;20365;-82
2023/08/18 00:31:38;;;;;;;1.50;0.60;;;17.10;99.90;;;;;;4957984;28;20305;-82
2023/08/18 00:34:04;;;;;;;1.92;0.75;;;17.10;99.90;;;;;;4958434;28;20358;-82
2023/08/18 00:36:31;;;;;;;2.00;0.70;;;17.10;99.90;;;;;;4965366;28;20467;-82
2023/08/18 00:38:58;;;;;;;1.52;0.70;;;17.10;99.90;;;;;;4963028;28;20046;-82
2023/08/18 00:41:26;;;;;;;1.45;0.60;;;17.00;99.90;;;;;;4963671;28;20434;-82
2023/08/18 00:43:52;;;;;;;1.08;0.50;;;17.00;99.90;;;;;;4963611;28;20134;-82
2023/08/18 00:46:18;;;;;;;2.08;0.88;;;17.00;99.90;;;;;;4963051;28;20372;-82
2023/08/18 00:48:44;;;;;;;2.00;1.08;;;16.90;99.90;;;;;;4946803;28;20034;-83
2023/08/18 00:51:11;;;;;;;1.77;0.50;;;17.00;99.90;;;;;;4958775;28;20041;-82
2023/08/18 00:53:39;;;;;;;1.90;0.90;;;17.00;99.90;;;;;;4965669;28;20150;-82
2023/08/18 00:56:07;;;;;;;1.55;0.70;;;17.00;99.90;;;;;;4956570;28;20165;-82
2023/08/18 00:58:34;;;;;;;1.40;0.60;;;17.00;99.90;;;;;;4958851;28;20091;-82
2023/08/18 01:01:02;;;;;;;1.50;0.60;;;17.00;99.90;;;;;;4959808;28;20031;-82
2023/08/18 01:03:29;;;;;;;2.03;0.70;;;17.00;99.90;;;;;;4960458;28;20086;-82
2023/08/18 01:05:54;;;;;;;1.50;0.80;;;16.90;99.90;;;;;;4962061;28;20502;-82
2023/08/18 01:08:20;;;;;;;1.00;0.50;;;16.90;99.90;;;;;;4956657;28;20031;-83
2023/08/18 01:10:57;;;;;;;1.40;0.70;;;16.90;99.90;;;;;;4963933;28;20038;-82
2023/08/18 01:13:51;;;;;;;1.80;0.82;;;16.90;99.90;;;;;;4962620;28;20085;-82
2023/08/18 01:16:23;;;;;;;1.20;0.60;;;16.90;99.90;;;;;;4964252;28;20019;-82
2023/08/18 01:18:51;;;;;;;1.20;0.50;;;17.00;99.90;;;;;;4959543;28;20090;-82
2023/08/18 01:21:18;;;;;;;1.60;0.60;;;17.00;99.90;;;;;;4966591;28;20022;-82
2023/08/18 01:23:44;;;;;;;1.27;0.50;;;17.00;99.90;;;;;;4964152;28;20039;-82
2023/08/18 01:26:09;;;;;;;1.58;0.50;;;16.90;99.90;;;;;;4958203;28;20534;-82
2023/08/18 01:28:36;;;;;;;1.33;0.60;;;16.90;99.90;;;;;;4953525;28;20038;-82
2023/08/18 01:31:10;;;;;;;1.40;0.68;;;17.00;99.90;;;;;;4956594;28;20035;-82
2023/08/18 01:33:43;;;;;;;2.25;1.27;;;16.90;99.90;;;;;;4949798;28;20055;-83
2023/08/18 01:36:15;;;;;;;2.78;0.95;;;16.80;99.90;;;;;;4957049;28;20034;-82
2023/08/18 01:38:44;;;;;;;1.95;0.80;;;16.90;99.90;;;;;;4950098;28;20034;-82
2023/08/18 01:41:12;;;;;;;1.70;0.70;;;16.90;99.90;;;;;;4957391;28;20392;-82
2023/08/18 01:43:38;;;;;;;2.50;0.98;;;16.80;99.90;;;;;;4948979;28;20041;-82
2023/08/18 01:46:04;;;;;;;1.80;0.90;;;16.80;99.90;;;;;;4957939;28;20023;-82
2023/08/18 01:48:29;;;;;;;3.33;0.70;;;16.80;99.90;;;;;;4960675;28;20027;-83
2023/08/18 01:50:55;;;;;;;1.33;0.65;;;16.80;99.90;;;;;;4958799;28;20547;-82
2023/08/18 01:53:21;;;;;;;1.65;0.85;;;16.80;99.90;;;;;;4964392;28;20045;-83
2023/08/18 01:55:47;;;;;;;3.63;1.10;;;16.80;99.90;;;;;;4960974;28;20106;-82
2023/08/18 01:58:13;;;;;;;1.70;0.90;;;16.80;99.90;;;;;;4942609;28;20045;-82
2023/08/18 02:00:39;;;;;;;2.65;0.90;;;16.80;99.90;;;;;;4958584;28;20297;-82
2023/08/18 02:03:04;;;;;;;1.77;1.00;;;16.80;99.90;;;;;;4942946;28;20056;-83
2023/08/18 02:05:30;;;;;;;1.55;0.70;;;16.80;99.90;;;;;;4956928;28;20467;-82
2023/08/18 02:07:57;;;;;;;2.50;0.75;;;16.80;99.90;;;;;;4973044;28;20106;-82
2023/08/18 02:10:23;;;;;;;1.83;0.80;;;16.80;99.90;;;;;;4961854;28;20035;-82
2023/08/18 02:12:48;;;;;;;1.40;0.60;;;16.80;99.90;;;;;;4949112;28;20027;-82
2023/08/18 02:15:14;;;;;;;1.80;0.90;;;16.80;99.90;;;;;;4940729;28;20055;-82
2023/08/18 02:17:40;;;;;;;1.73;0.60;;;16.80;99.90;;;;;;4948387;28;20054;-82
2023/08/18 02:20:08;;;;;;;2.67;1.13;;;16.80;99.90;;;;;;4957557;28;20027;-82
2023/08/18 02:22:35;;;;;;;;;;;16.70;99.90;;;;;;4944869;28;20141;-82
2023/08/18 02:25:02;;;;;;;1.63;0.90;;;16.70;99.90;;;;;;4961859;28;19915;-82
2023/08/18 02:27:28;;;;;;;1.27;0.60;;;16.80;99.90;;;;;;4949476;28;20041;-82
2023/08/18 02:29:54;;;;;;;2.30;1.00;;;16.70;99.90;;;;;;4954723;28;20019;-83
2023/08/18 02:32:20;;;;;;;2.13;0.60;;;16.70;99.90;;;;;;4958281;28;20466;-82
2023/08/18 02:34:46;;;;;;;1.92;0.95;;;16.80;99.90;;;;;;4963607;28;20051;-83
2023/08/18 02:37:13;;;;;;;1.60;0.90;;;16.80;99.90;;;;;;4959382;28;20416;-82
2023/08/18 02:39:39;;;;;;;1.50;0.80;;;16.80;99.90;;;;;;4958979;28;20050;-82
2023/08/18 02:42:05;;;;;;;2.22;0.80;;;16.80;99.90;;;;;;4961022;28;20392;-82
2023/08/18 02:44:32;;;;;;;2.25;1.20;;;16.80;99.90;;;;;;4959523;28;20177;-82
2023/08/18 02:47:00;;;;;;;2.40;1.00;;;16.70;99.90;;;;;;4960319;28;20496;-82
2023/08/18 02:49:26;;;;;;;1.60;0.60;;;16.70;99.90;;;;;;4960400;28;20031;-82
2023/08/18 02:51:51;;;;;;;3.30;0.98;;;16.80;99.90;;;;;;4959410;28;20027;-82
2023/08/18 02:54:17;;;;;;;1.70;0.90;;;16.70;99.90;;;;;;4962860;28;20029;-82
2023/08/18 02:56:43;;;;;;;1.60;0.68;;;16.70;99.90;;;;;;4957261;28;20027;-82
2023/08/18 02:59:09;;;;;;;1.98;1.00;;;16.70;99.90;;;;;;4950802;28;20031;-82
2023/08/18 03:01:35;;;;;;;2.38;1.02;;;16.70;99.90;;;;;;4965538;28;20026;-82
2023/08/18 03:04:02;;;;;;;2.08;1.13;;;16.70;99.90;;;;;;4960412;28;20053;-82
2023/08/18 03:06:27;;;;;;;1.92;0.90;;;16.70;99.90;;;;;;4963449;28;20039;-82
2023/08/18 03:08:53;;;;;;;2.20;1.02;;;16.70;99.90;;;;;;4955661;28;20035;-82
2023/08/18 03:11:19;;;;;;;2.90;1.40;;;16.70;99.90;;;;;;4958179;28;20029;-83
2023/08/18 03:13:44;;;;;;;3.22;1.65;;;16.70;99.90;;;;;;4959239;28;20034;-82
2023/08/18 03:16:10;;;;;;;2.30;1.35;;;16.80;99.90;;;;;;4959421;28;20420;-82
2023/08/18 03:18:36;;;;;;;2.50;1.60;;;16.70;99.90;;;;;;4957747;28;20399;-82
2023/08/18 03:21:05;;;;;;;4.00;1.77;;;16.70;99.90;;;;;;4964262;28;20027;-82
2023/08/18 03:23:32;;;;;;;3.05;1.48;;;16.80;99.90;;;;;;4950353;28;20289;-82
2023/08/18 03:26:00;;;;;;;2.33;1.45;;;16.70;99.90;;;;;;4963925;28;20241;-83
2023/08/18 03:28:27;;;;;;;2.25;1.40;;;16.80;99.90;;;;;;4961629;28;20443;-82
2023/08/18 03:30:58;;;;;;;2.22;1.02;;;16.70;99.90;;;;;;4948199;28;20022;-82
2023/08/18 03:33:25;;;;;;;2.15;1.63;;;16.70;99.90;;;;;;4959697;28;20535;-82
2023/08/18 03:35:51;;;;;;;3.60;2.17;;;16.70;99.90;;;;;;4963746;28;20069;-82
2023/08/18 03:38:17;;;;;;;2.15;1.55;;;16.70;99.90;;;;;;4959719;28;20054;-82
2023/08/18 03:40:43;;;;;;;4.70;2.22;;;16.70;99.90;;;;;;4958286;28;20492;-82
2023/08/18 03:43:08;;;;;;;3.55;2.35;;;16.70;99.90;;;;;;4965462;28;20039;-83
2023/08/18 03:45:37;;;;;;;2.38;1.70;;;16.70;99.90;;;;;;4961306;28;20736;-82
2023/08/18 03:48:04;;;;;;;3.03;1.65;;;16.70;99.90;;;;;;4951351;28;20023;-82
2023/08/18 03:50:32;;;;;;;2.97;1.95;;;16.70;99.90;;;;;;4964804;28;20031;-82
2023/08/18 03:52:58;;;;;;;3.08;2.38;;;16.70;99.90;;;;;;4953522;28;20468;-82
2023/08/18 03:55:23;;;;;;;3.58;2.17;;;16.70;99.90;;;;;;4964145;28;20435;-82
2023/08/18 03:57:49;;;;;;;2.85;1.75;;;16.70;99.90;;;;;;4951267;28;20178;-83
2023/08/18 04:00:17;;;;;;;3.42;2.38;;;16.70;99.90;;;;;;4958275;28;20058;-82
2023/08/18 04:02:44;;;;;;;3.35;2.20;;;16.70;99.90;;;;;;4951237;28;20030;-83
2023/08/18 04:05:14;;;;;;;2.88;1.70;;;16.70;99.90;;;;;;4947480;28;20395;-82
2023/08/18 04:07:40;;;;;;;2.80;1.60;;;16.70;99.90;;;;;;4948946;28;20049;-83
2023/08/18 04:10:07;;;;;;;3.22;2.25;;;16.60;99.90;;;;;;4952553;28;20023;-82
2023/08/18 04:12:34;;;;;;;3.13;2.05;;;16.60;99.90;;;;;;4964720;28;20053;-83
2023/08/18 04:15:00;;;;;;;4.30;2.28;;;16.70;99.90;;;;;;4962612;28;20097;-82
2023/08/18 04:17:26;;;;;;;2.42;1.63;;;16.70;99.90;;;;;;4956140;28;20487;-82
2023/08/18 04:19:52;;;;;;;3.53;2.80;;;16.70;99.90;;;;;;4959238;28;20098;-81
2023/08/18 04:22:17;;;;;;;3.97;2.78;;;16.60;99.90;;;;;;4960144;28;20019;-82
2023/08/18 04:24:43;;;;;;;4.15;2.72;;;16.60;99.90;;;;;;4957855;28;20039;-82
2023/08/18 04:27:10;;;;;;;3.03;2.13;;;16.70;99.90;;;;;;4961400;28;20024;-82
2023/08/18 04:29:35;;;;;;;3.17;2.30;;;16.60;99.90;;;;;;4964748;28;20170;-82
2023/08/18 04:32:01;;;;;;;4.28;2.75;;;16.60;99.90;;;;;;4963727;28;20514;-82
2023/08/18 04:34:29;;;;;;;5.03;4.05;;;16.60;99.90;;;;;;4962399;28;20044;-82
2023/08/18 04:36:55;;;;;;;5.22;3.97;;;16.60;99.90;;;;;;4962848;28;20535;-82
2023/08/18 04:39:21;;;;;;;4.45;3.03;;;16.60;99.90;;;;;;4961849;28;20023;-82
2023/08/18 04:41:47;;;;;;;6.90;3.90;;;16.60;99.90;;;;;;4959309;28;20383;-83
2023/08/18 04:44:13;;;;;;;6.10;4.35;;;16.60;99.90;;;;;;4961192;28;20499;-82
2023/08/18 04:46:39;;;;;;;6.15;4.40;;;16.60;99.90;;;;;;4952182;28;20054;-83
2023/08/18 04:49:11;;;;;;;4.63;3.35;;;16.60;99.90;;;;;;4960820;28;20027;-83
2023/08/18 04:51:37;;;;;;;7.82;5.00;;;16.60;99.90;;;;;;4962826;28;20022;-82
2023/08/18 04:54:03;;;;;;;9.10;5.80;;;16.60;99.90;;;;;;4965212;28;20372;-83
2023/08/18 04:56:29;;;;;;;5.65;4.28;;;16.60;99.90;;;;;;4947117;28;20074;-82
2023/08/18 04:58:55;;;;;;;8.02;5.22;;;16.60;99.90;;;;;;4943110;28;20038;-82
2023/08/18 05:01:21;;;;;;;6.82;4.63;;;16.60;99.90;;;;;;4944763;28;20015;-82
2023/08/18 05:03:46;;;;;;;5.75;4.47;;;16.60;99.90;;;;;;4966235;28;20045;-83
2023/08/18 05:06:13;;;;;;;7.47;4.60;;;16.60;99.90;;;;;;4965932;28;20026;-82
2023/08/18 05:08:42;;;;;;;6.18;5.03;;;16.60;99.90;;;;;;4957062;28;20035;-82
2023/08/18 05:11:11;;;;;;;7.32;5.13;;;16.60;99.90;;;;;;4943473;28;20065;-82
2023/08/18 05:13:39;;;;;;;5.55;4.10;;;16.60;99.90;;;;;;4964804;28;20390;-83
2023/08/18 05:16:05;;;;;;;6.38;4.65;;;16.60;99.90;;;;;;4942751;28;20035;-83
2023/08/18 05:18:32;;;;;;;7.45;5.70;;;16.60;99.90;;;;;;4959635;28;20034;-82
2023/08/18 05:20:58;;;;;;;10.65;7.85;;;16.60;99.90;;;;;;4942979;29;20435;-82
2023/08/18 05:23:25;;;;;;;6.57;5.25;;;16.60;99.90;;;;;;4957601;28;20134;-82
2023/08/18 05:25:54;;;;;;;6.90;5.07;;;16.60;99.90;;;;;;4958835;28;20476;-82
2023/08/18 05:28:22;;;;;;;7.88;5.88;;;16.60;99.90;;;;;;4946163;28;20030;-83
2023/08/18 05:30:48;;;;;;;8.40;5.32;;;16.70;99.90;;;;;;4956350;28;20449;-82
2023/08/18 05:33:15;;;;;;;7.50;6.65;;;16.60;99.90;;;;;;4962118;28;20045;-82
2023/08/18 05:35:41;;;;;;;7.35;4.95;;;16.70;99.90;;;;;;4942221;28;20055;-81
2023/08/18 05:38:10;;;;;;;6.75;4.70;;;16.70;99.90;;;;;;4940827;28;20046;-82
2023/08/18 05:40:49;;;;;;;9.15;5.93;;;16.70;99.90;;;;;;4958384;28;20097;-83
2023/08/18 05:43:16;;;;;;;8.75;5.95;;;16.70;99.90;;;;;;4957431;28;20479;-82
2023/08/18 05:45:46;;;;;;;8.32;6.05;;;16.70;99.90;;;;;;4949247;28;20042;-82
2023/08/18 05:48:12;;;;;;;;;;;16.70;99.90;;;;;;4958015;28;20051;-83
2023/08/18 05:50:38;;;;;;;13.35;8.40;;;16.70;99.90;;;;;;4950775;28;19926;-82
2023/08/18 05:53:04;;;;;;;13.63;9.00;;;16.80;99.90;;;;;;4959756;28;20134;-82
2023/08/18 05:55:31;;;;;;;9.63;6.70;;;16.70;99.90;;;;;;4961047;28;20113;-83
2023/08/18 05:58:01;;;;;;;7.30;5.63;;;16.80;99.90;;;;;;4942758;28;20050;-82
2023/08/18 06:00:29;;;;;;;7.68;6.80;;;16.80;99.90;;;;;;4943495;28;20046;-82
2023/08/18 06:02:55;;;;;;;10.23;7.47;;;16.80;99.90;;;;;;4961534;28;20475;-82
2023/08/18 06:05:22;;;;;;;11.93;7.88;;;16.80;99.90;;;;;;4946824;28;20050;-83
2023/08/18 06:07:48;;;;;;;10.23;6.78;;;16.90;99.90;;;;;;4961449;28;20063;-81
2023/08/18 06:10:14;;;;;;;12.00;8.48;;;16.80;99.90;;;;;;4964059;28;20460;-82
2023/08/18 06:12:40;;;;;;;11.10;7.47;;;16.80;99.90;;;;;;4958284;28;20038;-81
2023/08/18 06:15:07;;;;;;;12.13;7.20;;;16.90;99.90;;;;;;4949604;28;20037;-81
2023/08/18 06:17:34;;;;;;;9.20;6.13;;;16.90;99.90;;;;;;4961016;28;20035;-82
2023/08/18 06:20:00;;;;;;;9.30;6.00;;;17.00;99.90;;;;;;4957624;28;20488;-81
2023/08/18 06:22:26;;;;;;;7.72;6.78;;;17.00;99.90;;;;;;4925709;28;20047;-81
2023/08/18 06:24:52;;;;;;;8.95;7.15;;;17.20;99.90;;;;;;4935433;28;20046;-80
2023/08/18 06:27:18;;;;;;;8.55;6.43;;;17.20;99.90;;;;;;4946377;28;20403;-81
2023/08/18 06:29:43;;;;;;;8.40;5.97;;;17.30;99.90;;;;;;4935268;28;20054;-80
2023/08/18 06:32:09;;;;;;;9.82;6.05;;;17.40;99.90;;;;;;4943733;28;20031;-81
2023/08/18 06:34:35;;;;;;;7.60;4.85;;;17.50;99.90;;;;;;4945043;28;20050;-81
2023/08/18 06:37:01;;;;;;;9.35;7.22;;;17.50;99.90;;;;;;4946043;28;20065;-82
2023/08/18 06:39:27;;;;;;;11.35;7.93;;;17.50;99.90;;;;;;4940385;28;20043;-81
2023/08/18 06:41:53;;;;;;;8.45;6.15;;;17.50;99.90;;;;;;4935953;28;20085;-82
2023/08/18 06:44:20;;;;;;;10.48;6.47;;;17.70;99.90;;;;;;4943343;28;20049;-82
2023/08/18 06:46:46;;;;;;;9.15;4.80;;;17.60;99.90;;;;;;4930266;28;20036;-81
2023/08/18 06:49:12;;;;;;;10.10;6.63;;;17.70;99.90;;;;;;4929197;28;20039;-81
2023/08/18 06:51:37;;;;;;;10.52;6.40;;;17.70;99.90;;;;;;4928892;28;20030;-81
2023/08/18 06:54:03;;;;;;;8.55;5.97;;;17.70;99.90;;;;;;4942253;28;20043;-81
2023/08/18 06:56:29;;;;;;;8.38;6.05;;;17.80;99.90;;;;;;4946406;28;20435;-82
2023/08/18 06:58:55;;;;;;;18.17;9.25;;;17.90;99.90;;;;;;4942658;28;20471;-81
2023/08/18 07:01:21;;;;;;;7.43;5.40;;;17.80;99.90;;;;;;4940198;28;20551;-81
2023/08/18 07:03:48;;;;;;;10.13;6.65;;;17.80;99.90;;;;;;4942696;28;20039;-81
2023/08/18 07:06:14;;;;;;;16.55;7.60;;;17.80;99.90;;;;;;4940399;28;20479;-82
2023/08/18 07:08:40;;;;;;;8.80;6.13;;;17.80;99.90;;;;;;4959037;28;20384;-82
2023/08/18 07:11:05;;;;;;;12.38;7.88;;;17.80;99.90;;;;;;4964733;28;20023;-81
2023/08/18 07:13:31;;;;;;;11.80;8.15;;;17.90;99.90;;;;;;4964665;28;20035;-82
2023/08/18 07:15:57;;;;;;;13.75;8.55;;;17.90;99.90;;;;;;4961745;28;20070;-82
2023/08/18 07:18:23;;;;;;;10.95;7.85;;;17.90;99.90;;;;;;4942282;28;20023;-82
2023/08/18 07:20:49;;;;;;;11.23;7.78;;;18.00;99.90;;;;;;4938404;28;20118;-81
2023/08/18 07:23:15;;;;;;;12.77;9.65;;;18.00;99.90;;;;;;4944628;28;20042;-80
2023/08/18 07:25:41;;;;;;;9.02;7.28;;;18.00;99.90;;;;;;4960259;28;20023;-81
2023/08/18 07:28:07;;;;;;;12.32;6.82;;;18.10;99.90;;;;;;4961045;28;20432;-81
2023/08/18 07:30:33;;;;;;;12.77;8.23;;;18.10;99.90;;;;;;4958939;28;20023;-82
2023/08/18 07:32:59;;;;;;;9.90;7.00;;;18.20;99.90;;;;;;4959290;28;20085;-82
2023/08/18 07:35:25;;;;;;;10.85;7.93;;;18.30;99.90;;;;;;4957559;28;20055;-82
2023/08/18 07:37:51;;;;;;;8.35;6.60;;;18.40;99.90;;;;;;4964604;28;20478;-82
2023/08/18 07:40:18;;;;;;;11.85;8.32;;;18.50;99.90;;;;;;4962918;28;20038;-82
2023/08/18 07:42:47;;;;;;;9.55;6.55;;;18.50;99.90;;;;;;4961634;28;20038;-82
2023/08/18 07:45:12;;;;;;;10.10;6.43;;;18.60;99.90;;;;;;4945138;28;20042;-81
2023/08/18 07:47:39;;;;;;;7.97;6.57;;;18.60;99.90;;;;;;4963661;28;20086;-82
2023/08/18 07:50:10;;;;;;;6.60;4.97;;;18.60;99.90;;;;;;4943957;28;20027;-82
2023/08/18 07:52:37;;;;;;;7.88;5.63;;;18.70;99.90;;;;;;4950829;28;20164;-81
2023/08/18 07:55:04;;;;;;;6.60;5.35;;;18.80;99.90;;;;;;4956295;28;20035;-82
2023/08/18 07:57:29;;;;;;;5.47;4.15;;;18.90;99.90;;;;;;4941862;28;20035;-82
2023/08/18 07:59:55;;;;;;;6.35;4.68;;;19.00;99.90;;;;;;4962648;28;20093;-83
2023/08/18 08:02:21;;;;;;;6.82;5.75;;;19.10;99.90;;;;;;4964049;28;20026;-82
2023/08/18 08:04:46;;;;;;;6.60;5.25;;;19.00;99.90;;;;;;4968513;28;20462;-82
2023/08/18 08:07:12;;;;;;;6.20;4.68;;;19.20;99.90;;;;;;4962729;28;20030;-81
2023/08/18 08:09:39;;;;;;;5.35;3.83;;;19.10;99.90;;;;;;4966460;28;20069;-82
2023/08/18 08:12:05;;;;;;;6.13;4.32;;;19.00;99.90;;;;;;4958025;28;20078;-81
2023/08/18 08:14:30;;;;;;;5.10;4.47;;;19.00;99.90;;;;;;4944578;28;20114;-82
2023/08/18 08:16:56;;;;;;;5.88;4.00;;;19.00;99.90;;;;;;4962001;28;20452;-82
2023/08/18 08:19:22;;;;;;;4.25;3.65;;;19.10;99.90;;;;;;4943794;28;20182;-82
2023/08/18 08:21:47;;;;;;;3.95;2.90;;;19.10;99.90;;;;;;4946550;28;20379;-81
2023/08/18 08:24:13;;;;;;;4.03;3.33;;;19.10;99.90;;;;;;4952221;28;20030;-82
2023/08/18 08:26:39;;;;;;;3.75;3.30;;;19.10;99.90;;;;;;4961020;28;20027;-82
2023/08/18 08:29:05;;;;;;;5.35;3.80;;;19.10;99.90;;;;;;4944418;28;20030;-82
2023/08/18 08:31:31;;;;;;;5.60;4.07;;;19.20;99.90;;;;;;4945138;28;20026;-82
2023/08/18 08:33:57;;;;;;;4.50;4.07;;;19.20;99.90;;;;;;4945496;28;20097;-82
2023/08/18 08:36:23;;;;;;;4.55;3.97;;;19.20;99.90;;;;;;4961784;28;20126;-81
2023/08/18 08:38:49;;;;;;;3.28;2.35;;;19.30;99.90;;;;;;4958379;28;20117;-82
2023/08/18 08:41:14;;;;;;;4.70;2.88;;;19.40;99.90;;;;;;4964044;28;20384;-82
2023/08/18 08:43:40;;;;;;;4.97;4.13;;;19.40;99.90;;;;;;4963186;28;20046;-82
2023/08/18 08:46:07;;;;;;;4.40;4.00;;;19.50;99.90;;;;;;4959452;28;20130;-82
2023/08/18 08:48:44;;;;;;;3.47;2.80;;;19.40;99.90;;;;;;4959872;28;20035;-81
2023/08/18 08:51:11;;;;;;;3.65;2.85;;;19.50;99.90;;;;;;4956546;28;20046;-82
2023/08/18 08:53:45;;;;;;;2.65;2.25;;;19.60;99.90;;;;;;4960606;28;20126;-81
2023/08/18 08:56:16;;;;;;;2.85;2.47;;;19.70;99.90;;;;;;4959967;28;20206;-81
2023/08/18 08:58:42;;;;;;;2.35;1.77;;;19.60;99.90;;;;;;4962873;28;20041;-82
2023/08/18 09:01:08;;;;;;;3.20;2.38;;;19.60;99.90;;;;;;4957115;28;20041;-81
2023/08/18 09:03:34;;;;;;;2.97;1.75;;;19.60;99.90;;;;;;4956352;28;20385;-82
2023/08/18 09:05:59;;;;;;;5.68;3.67;;;19.60;99.90;;;;;;4961714;28;20061;-82
2023/08/18 09:08:25;;;;;;;3.60;3.28;;;19.60;99.90;;;;;;4961476;28;20039;-82
2023/08/18 09:10:51;;;;;;;5.03;3.45;;;19.70;99.90;;;;;;4946592;28;20106;-82
2023/08/18 09:13:17;;;;;;;3.72;3.17;;;19.80;99.90;;;;;;4957986;28;20464;-82
2023/08/18 09:15:47;;;;;;;3.88;3.00;;;19.80;99.90;;;;;;4960648;28;20035;-82
2023/08/18 09:18:14;;;;;;;3.70;2.45;;;20.00;99.90;;;;;;4944046;28;20030;-81
2023/08/18 09:20:44;;;;;;;3.28;2.70;;;20.10;99.90;;;;;;4957609;28;20038;-82
2023/08/18 09:23:10;;;;;;;2.33;1.58;;;20.40;99.90;;;;;;4955373;28;20038;-83
2023/08/18 09:25:36;;;;;;;4.50;2.53;;;20.60;99.90;;;;;;4970641;28;20027;-82
2023/08/18 09:28:06;;;;;;;3.17;2.28;;;20.70;99.90;;;;;;4955266;28;20442;-82
2023/08/18 09:30:32;;;;;;;3.63;2.97;;;20.80;99.90;;;;;;4960123;28;20055;-82
2023/08/18 09:33:02;;;;;;;3.30;2.90;;;20.90;99.90;;;;;;4957106;28;20532;-82
2023/08/18 09:35:34;;;;;;;2.85;2.55;;;21.00;99.90;;;;;;4941852;28;20031;-81
2023/08/18 09:38:00;;;;;;;2.55;1.92;;;21.10;99.90;;;;;;4956104;28;20431;-82
2023/08/18 09:40:27;;;;;;;3.20;1.90;;;21.20;99.90;;;;;;4940624;28;20065;-82
2023/08/18 09:42:52;;;;;;;3.28;2.97;;;21.20;99.90;;;;;;4945415;28;20069;-82
2023/08/18 09:45:24;;;;;;;3.78;2.38;;;21.10;99.90;;;;;;4962629;28;20069;-82
2023/08/18 09:47:56;;;;;;;2.92;2.45;;;21.20;99.90;;;;;;4968109;28;20027;-81
2023/08/18 09:50:29;;;;;;;2.83;2.15;;;21.20;99.90;;;;;;4957157;28;20041;-81
2023/08/18 09:52:56;;;;;;;2.78;2.17;;;21.30;99.90;;;;;;4959037;28;20031;-82
2023/08/18 09:55:47;;;;;;;3.63;2.75;;;21.50;99.90;;;;;;4955546;28;20041;-81
2023/08/18 09:58:22;;;;;;;2.90;2.55;;;21.70;99.90;;;;;;4958941;28;20038;-81
2023/08/18 10:00:56;;;;;;;2.97;2.22;;;21.60;99.90;;;;;;4954678;28;20035;-82
2023/08/18 10:03:28;;;;;;;3.38;2.58;;;21.70;99.90;;;;;;4937796;28;20101;-81
2023/08/18 10:05:56;;;;;;;2.47;2.22;;;22.00;99.90;;;;;;4956318;28;20033;-82
2023/08/18 10:08:22;;;;;;;3.50;2.60;;;22.00;99.90;;;;;;4946566;28;20031;-81
2023/08/18 10:10:50;;;;;;;2.95;2.13;;;22.10;99.90;;;;;;4964566;28;20050;-82
2023/08/18 10:13:16;;;;;;;2.53;2.15;;;22.40;99.90;;;;;;4945363;28;20024;-82
2023/08/18 10:15:43;;;;;;;2.15;1.77;;;22.40;99.90;;;;;;4961994;28;20079;-81
2023/08/18 10:18:11;;;;;;;2.83;2.50;;;22.60;99.90;;;;;;4941429;28;20490;-81
2023/08/18 10:20:48;;;;;;;3.97;3.30;;;22.70;99.90;;;;;;4959623;28;20260;-81
2023/08/18 10:23:16;;;;;;;2.15;1.83;;;22.50;99.90;;;;;;4953398;28;20034;-81
2023/08/18 10:25:45;;;;;;;2.83;2.20;;;22.50;99.90;;;;;;4954802;28;20421;-80
2023/08/18 10:28:17;;;;;;;3.27;2.30;;;22.50;99.90;;;;;;4941166;28;20487;-81
2023/08/18 10:30:59;;;;;;;2.63;2.05;;;22.40;99.90;;;;;;4956684;28;20651;-81
2023/08/18 10:33:43;;;;;;;2.88;2.63;;;22.60;99.90;;;;;;4946113;28;20042;-80
2023/08/18 10:36:10;;;;;;;3.83;2.78;;;22.50;99.90;;;;;;4941665;28;20038;-80
2023/08/18 10:38:39;;;;;;;2.40;2.05;;;22.60;99.90;;;;;;4955737;28;20034;-81
2023/08/18 10:41:05;;;;;;;3.50;3.20;;;22.60;99.90;;;;;;4956174;28;20046;-81
2023/08/18 10:43:51;;;;;;;3.35;2.72;;;22.70;99.90;;;;;;4959491;28;20389;-81
2023/08/18 10:46:17;;;;;;;2.88;2.42;;;22.60;99.90;;;;;;4958254;28;20083;-81
2023/08/18 10:48:43;;;;;;;2.50;1.92;;;23.10;99.90;;;;;;4960589;28;20031;-82
2023/08/18 10:51:09;;;;;;;3.30;2.92;;;23.60;99.90;;;;;;4954743;28;20074;-81
2023/08/18 10:53:37;;;;;;;2.85;2.25;;;23.60;99.90;;;;;;4958034;28;20054;-81
2023/08/18 10:56:06;;;;;;;3.13;2.80;;;23.70;99.90;;;;;;4946200;28;20399;-81
2023/08/18 10:58:34;;;;;;;4.50;4.10;;;23.80;99.90;;;;;;4974794;28;20712;-82
2023/08/18 11:01:00;;;;;;;3.38;3.03;;;23.50;99.90;;;;;;4957005;28;20022;-81
2023/08/18 11:03:26;;;;;;;2.38;1.95;;;23.20;99.90;;;;;;4958146;28;20078;-81
2023/08/18 11:05:52;;;;;;;3.65;3.35;;;23.20;99.90;;;;;;4949254;28;20058;-81
2023/08/18 11:08:18;;;;;;;2.20;1.73;;;23.50;99.90;;;;;;4958177;28;20106;-81
2023/08/18 11:10:44;;;;;;;2.33;1.80;;;24.10;99.90;;;;;;4946494;28;20447;-81
2023/08/18 11:13:21;;;;;;;2.45;1.90;;;24.10;99.90;;;;;;4958468;28;20031;-81
2023/08/18 11:15:49;;;;;;;2.83;2.58;;;23.80;99.90;;;;;;4958211;28;20034;-82
2023/08/18 11:18:15;;;;;;;3.88;2.72;;;23.30;99.90;;;;;;4959487;28;20403;-81
2023/08/18 11:20:42;;;;;;;2.58;2.38;;;23.30;99.90;;;;;;4958151;28;20035;-82
2023/08/18 11:23:08;;;;;;;3.65;2.65;;;23.60;99.90;;;;;;4974584;28;20031;-81
2023/08/18 11:25:36;;;;;;;2.00;1.45;;;23.80;99.90;;;;;;4943658;28;20030;-82
2023/08/18 11:28:02;;;;;;;2.38;2.08;;;23.80;99.90;;;;;;4964073;28;20099;-82
2023/08/18 11:30:28;;;;;;;2.92;2.30;;;23.80;99.90;;;;;;4957713;28;20476;-80
2023/08/18 11:32:54;;;;;;;3.20;2.08;;;24.00;99.90;;;;;;4964104;28;20019;-82
2023/08/18 11:35:21;;;;;;;2.60;2.40;;;24.10;99.90;;;;;;4960426;28;20388;-81
2023/08/18 11:37:52;;;;;;;2.63;2.05;;;24.10;99.90;;;;;;4958382;28;20468;-81
2023/08/18 11:40:20;;;;;;;2.45;2.25;;;24.10;99.90;;;;;;4958268;28;20090;-82
2023/08/18 11:42:51;;;;;;;3.30;2.97;;;24.20;99.90;;;;;;4946341;28;20090;-80
2023/08/18 11:45:18;;;;;;;3.08;2.78;;;24.10;99.90;;;;;;4959488;28;20043;-83
2023/08/18 11:47:46;;;;;;;3.72;3.42;;;23.90;99.90;;;;;;4958024;28;20551;-82
2023/08/18 11:50:21;;;;;;;2.60;2.40;;;24.10;99.90;;;;;;4961020;28;20035;-81
2023/08/18 11:52:52;;;;;;;2.50;2.03;;;24.10;99.90;;;;;;4962243;28;20032;-81
2023/08/18 11:55:36;;;;;;;2.40;1.75;;;24.50;99.90;;;;;;4957283;28;20065;-81
2023/08/18 11:58:07;;;;;;;2.28;2.08;;;24.70;99.90;;;;;;4957750;28;20023;-81
2023/08/18 12:00:38;;;;;;;3.63;3.33;;;24.70;99.90;;;;;;4957742;28;20023;-81
2023/08/18 12:03:05;;;;;;;3.33;3.03;;;24.50;99.90;;;;;;4958082;28;20398;-82
2023/08/18 12:05:31;;;;;;;2.60;2.40;;;24.30;99.90;;;;;;4959353;28;20031;-81
2023/08/18 12:07:59;;;;;;;1.90;1.63;;;24.60;99.90;;;;;;4947810;28;20035;-82
2023/08/18 12:10:25;;;;;;;3.20;2.88;;;24.70;99.90;;;;;;4959077;28;20041;-81
2023/08/18 12:12:56;;;;;;;2.92;2.20;;;24.80;99.90;;;;;;4945876;28;20026;-82
2023/08/18 12:15:25;;;;;;;2.45;1.85;;;24.90;99.90;;;;;;4963564;28;20039;-82
2023/08/18 12:17:51;;;;;;;2.60;1.77;;;24.80;99.90;;;;;;4957120;28;20027;-81
2023/08/18 12:20:20;;;;;;;1.85;1.55;;;24.70;99.90;;;;;;4962112;28;20247;-81
2023/08/18 12:22:51;;;;;;;2.70;2.30;;;24.80;99.90;;;;;;4957848;28;20023;-81
2023/08/18 12:25:17;;;;;;;1.88;1.35;;;25.30;99.90;;;;;;4960676;28;20062;-81
2023/08/18 12:27:50;;;;;;;2.45;2.03;;;25.20;99.90;;;;;;4957010;28;20022;-81
2023/08/18 12:30:17;;;;;;;2.50;1.73;;;25.00;99.90;;;;;;4940381;28;20027;-84
2023/08/18 12:32:44;;;;;;;1.98;1.60;;;25.30;99.90;;;;;;4958356;28;20130;-81
2023/08/18 12:35:10;;;;;;;2.28;1.83;;;25.30;99.90;;;;;;4961500;28;20578;-81
2023/08/18 12:37:37;;;;;;;2.10;1.80;;;25.20;99.90;;;;;;4961442;28;20027;-83
2023/08/18 12:40:05;;;;;;;1.75;1.52;;;25.20;99.90;;;;;;4961156;28;20486;-82
2023/08/18 12:42:32;;;;;;;2.92;2.63;;;25.40;99.90;;;;;;4960076;28;20543;-81
2023/08/18 12:44:58;;;;;;;3.30;3.00;;;25.10;99.90;;;;;;4956884;28;20051;-81